sensor_id;sensor_type;location;lat;lon;timestamp;P1;durP1;ratioP1;P2;durP2;ratioP2
70576;SDS011;58138;43.138;24.702;2023-01-08T00:00:43;76.05;;;40.13;;
70576;SDS011;58138;43.138;24.702;2023-01-08T00:03:08;64.05;;;35.90;;
70576;SDS011;58138;43.138;24.702;2023-01-08T00:05:34;65.35;;;37.10;;
70576;SDS011;58138;43.138;24.702;2023-01-08T00:08:00;59.40;;;34.47;;
70576;SDS011;58138;43.138;24.702;2023-01-08T00:10:25;70.43;;;37.53;;
70576;SDS011;58138;43.138;24.702;2023-01-08T00:12:51;63.70;;;36.17;;
70576;SDS011;58138;43.138;24.702;2023-01-08T00:15:18;71.88;;;39.60;;
70576;SDS011;58138;43.138;24.702;2023-01-08T00:17:43;61.95;;;36.72;;
70576;SDS011;58138;43.138;24.702;2023-01-08T00:20:09;57.40;;;34.08;;
70576;SDS011;58138;43.138;24.702;2023-01-08T00:22:34;63.38;;;34.58;;
70576;SDS011;58138;43.138;24.702;2023-01-08T00:25:00;62.85;;;34.47;;
70576;SDS011;58138;43.138;24.702;2023-01-08T00:27:25;59.92;;;35.50;;
70576;SDS011;58138;43.138;24.702;2023-01-08T00:29:51;57.85;;;32.08;;
70576;SDS011;58138;43.138;24.702;2023-01-08T00:32:16;58.00;;;33.33;;
70576;SDS011;58138;43.138;24.702;2023-01-08T00:34:42;55.17;;;30.88;;
70576;SDS011;58138;43.138;24.702;2023-01-08T00:37:07;51.05;;;29.85;;
70576;SDS011;58138;43.138;24.702;2023-01-08T00:39:33;52.65;;;29.60;;
70576;SDS011;58138;43.138;24.702;2023-01-08T00:41:58;40.78;;;25.20;;
70576;SDS011;58138;43.138;24.702;2023-01-08T00:44:23;46.40;;;25.75;;
70576;SDS011;58138;43.138;24.702;2023-01-08T00:46:49;41.75;;;24.58;;
70576;SDS011;58138;43.138;24.702;2023-01-08T00:49:14;39.15;;;24.27;;
70576;SDS011;58138;43.138;24.702;2023-01-08T00:51:40;37.15;;;20.92;;
70576;SDS011;58138;43.138;24.702;2023-01-08T00:54:05;36.25;;;21.17;;
70576;SDS011;58138;43.138;24.702;2023-01-08T00:56:31;37.38;;;20.48;;
70576;SDS011;58138;43.138;24.702;2023-01-08T00:58:56;33.47;;;17.98;;
70576;SDS011;58138;43.138;24.702;2023-01-08T01:01:22;35.95;;;19.80;;
70576;SDS011;58138;43.138;24.702;2023-01-08T01:03:47;33.90;;;20.73;;
70576;SDS011;58138;43.138;24.702;2023-01-08T01:06:13;38.03;;;21.50;;
70576;SDS011;58138;43.138;24.702;2023-01-08T01:08:39;39.65;;;23.35;;
70576;SDS011;58138;43.138;24.702;2023-01-08T01:11:09;36.67;;;22.10;;
70576;SDS011;58138;43.138;24.702;2023-01-08T01:13:35;34.85;;;20.75;;
70576;SDS011;58138;43.138;24.702;2023-01-08T01:16:01;33.10;;;19.15;;
70576;SDS011;58138;43.138;24.702;2023-01-08T01:18:27;37.30;;;21.58;;
70576;SDS011;58138;43.138;24.702;2023-01-08T01:20:53;34.58;;;20.33;;
70576;SDS011;58138;43.138;24.702;2023-01-08T01:23:18;41.63;;;20.80;;
70576;SDS011;58138;43.138;24.702;2023-01-08T01:25:44;35.97;;;19.58;;
70576;SDS011;58138;43.138;24.702;2023-01-08T01:28:09;36.83;;;20.20;;
70576;SDS011;58138;43.138;24.702;2023-01-08T01:30:34;33.50;;;20.00;;
70576;SDS011;58138;43.138;24.702;2023-01-08T01:33:00;32.40;;;19.23;;
70576;SDS011;58138;43.138;24.702;2023-01-08T01:35:26;34.60;;;19.70;;
70576;SDS011;58138;43.138;24.702;2023-01-08T01:37:51;35.80;;;19.40;;
70576;SDS011;58138;43.138;24.702;2023-01-08T01:40:16;32.63;;;19.50;;
70576;SDS011;58138;43.138;24.702;2023-01-08T01:42:42;32.20;;;18.63;;
70576;SDS011;58138;43.138;24.702;2023-01-08T01:45:19;32.33;;;19.25;;
70576;SDS011;58138;43.138;24.702;2023-01-08T01:47:53;33.88;;;19.15;;
70576;SDS011;58138;43.138;24.702;2023-01-08T01:50:24;31.00;;;17.60;;
70576;SDS011;58138;43.138;24.702;2023-01-08T01:53:14;30.88;;;17.77;;
70576;SDS011;58138;43.138;24.702;2023-01-08T01:55:42;24.65;;;14.40;;
70576;SDS011;58138;43.138;24.702;2023-01-08T01:58:12;27.65;;;16.40;;
70576;SDS011;58138;43.138;24.702;2023-01-08T02:00:40;16.95;;;10.70;;
70576;SDS011;58138;43.138;24.702;2023-01-08T02:03:06;23.92;;;12.60;;
70576;SDS011;58138;43.138;24.702;2023-01-08T02:05:46;22.42;;;13.73;;
70576;SDS011;58138;43.138;24.702;2023-01-08T02:08:15;24.35;;;12.85;;
70576;SDS011;58138;43.138;24.702;2023-01-08T02:10:49;20.50;;;11.55;;
70576;SDS011;58138;43.138;24.702;2023-01-08T02:13:16;20.85;;;10.05;;
70576;SDS011;58138;43.138;24.702;2023-01-08T02:18:33;28.20;;;15.95;;
70576;SDS011;58138;43.138;24.702;2023-01-08T02:21:10;31.17;;;18.40;;
70576;SDS011;58138;43.138;24.702;2023-01-08T02:23:41;36.10;;;20.23;;
70576;SDS011;58138;43.138;24.702;2023-01-08T02:26:16;36.63;;;22.00;;
70576;SDS011;58138;43.138;24.702;2023-01-08T02:31:20;38.78;;;20.60;;
70576;SDS011;58138;43.138;24.702;2023-01-08T02:33:47;34.30;;;20.55;;
70576;SDS011;58138;43.138;24.702;2023-01-08T02:38:56;30.08;;;18.02;;
70576;SDS011;58138;43.138;24.702;2023-01-08T02:46:55;28.65;;;16.98;;
70576;SDS011;58138;43.138;24.702;2023-01-08T02:49:23;26.60;;;16.27;;
70576;SDS011;58138;43.138;24.702;2023-01-08T02:51:53;32.42;;;16.98;;
70576;SDS011;58138;43.138;24.702;2023-01-08T02:54:22;26.00;;;15.38;;
70576;SDS011;58138;43.138;24.702;2023-01-08T02:56:58;21.60;;;13.13;;
70576;SDS011;58138;43.138;24.702;2023-01-08T02:59:26;18.70;;;10.60;;
70576;SDS011;58138;43.138;24.702;2023-01-08T03:01:54;24.33;;;12.27;;
70576;SDS011;58138;43.138;24.702;2023-01-08T03:04:20;19.08;;;10.60;;
70576;SDS011;58138;43.138;24.702;2023-01-08T03:06:46;18.90;;;11.25;;
70576;SDS011;58138;43.138;24.702;2023-01-08T03:09:12;18.52;;;12.20;;
70576;SDS011;58138;43.138;24.702;2023-01-08T03:11:59;23.55;;;15.15;;
70576;SDS011;58138;43.138;24.702;2023-01-08T03:14:47;18.67;;;12.80;;
70576;SDS011;58138;43.138;24.702;2023-01-08T03:17:17;23.52;;;12.80;;
70576;SDS011;58138;43.138;24.702;2023-01-08T03:19:53;21.23;;;12.93;;
70576;SDS011;58138;43.138;24.702;2023-01-08T03:22:21;25.48;;;15.27;;
70576;SDS011;58138;43.138;24.702;2023-01-08T03:24:48;21.35;;;14.02;;
70576;SDS011;58138;43.138;24.702;2023-01-08T03:27:16;28.25;;;16.27;;
70576;SDS011;58138;43.138;24.702;2023-01-08T03:29:45;25.73;;;14.10;;
70576;SDS011;58138;43.138;24.702;2023-01-08T03:32:14;20.80;;;12.45;;
70576;SDS011;58138;43.138;24.702;2023-01-08T03:34:40;18.48;;;11.52;;
70576;SDS011;58138;43.138;24.702;2023-01-08T03:37:08;17.90;;;9.75;;
70576;SDS011;58138;43.138;24.702;2023-01-08T03:39:42;16.70;;;8.77;;
70576;SDS011;58138;43.138;24.702;2023-01-08T03:42:10;16.35;;;8.43;;
70576;SDS011;58138;43.138;24.702;2023-01-08T03:44:36;11.57;;;7.15;;
70576;SDS011;58138;43.138;24.702;2023-01-08T03:47:02;13.80;;;8.18;;
70576;SDS011;58138;43.138;24.702;2023-01-08T03:49:28;18.98;;;8.63;;
70576;SDS011;58138;43.138;24.702;2023-01-08T03:51:54;17.70;;;10.82;;
70576;SDS011;58138;43.138;24.702;2023-01-08T03:54:20;17.58;;;9.88;;
70576;SDS011;58138;43.138;24.702;2023-01-08T03:56:48;18.88;;;11.75;;
70576;SDS011;58138;43.138;24.702;2023-01-08T03:59:14;18.48;;;10.73;;
70576;SDS011;58138;43.138;24.702;2023-01-08T04:01:39;21.10;;;11.38;;
70576;SDS011;58138;43.138;24.702;2023-01-08T04:04:05;16.45;;;9.77;;
70576;SDS011;58138;43.138;24.702;2023-01-08T04:06:31;14.73;;;9.15;;
70576;SDS011;58138;43.138;24.702;2023-01-08T04:08:57;17.10;;;9.40;;
70576;SDS011;58138;43.138;24.702;2023-01-08T04:11:22;14.85;;;8.70;;
70576;SDS011;58138;43.138;24.702;2023-01-08T04:13:48;17.63;;;10.60;;
70576;SDS011;58138;43.138;24.702;2023-01-08T04:16:13;16.40;;;9.95;;
70576;SDS011;58138;43.138;24.702;2023-01-08T04:18:39;19.90;;;10.18;;
70576;SDS011;58138;43.138;24.702;2023-01-08T04:21:04;20.48;;;11.45;;
70576;SDS011;58138;43.138;24.702;2023-01-08T04:23:30;24.25;;;12.90;;
70576;SDS011;58138;43.138;24.702;2023-01-08T04:25:55;23.50;;;13.05;;
70576;SDS011;58138;43.138;24.702;2023-01-08T04:28:20;21.58;;;12.75;;
70576;SDS011;58138;43.138;24.702;2023-01-08T04:30:46;18.55;;;11.60;;
70576;SDS011;58138;43.138;24.702;2023-01-08T04:33:12;21.73;;;13.07;;
70576;SDS011;58138;43.138;24.702;2023-01-08T04:35:37;21.42;;;12.23;;
70576;SDS011;58138;43.138;24.702;2023-01-08T04:38:03;27.60;;;14.18;;
70576;SDS011;58138;43.138;24.702;2023-01-08T04:40:28;32.03;;;18.15;;
70576;SDS011;58138;43.138;24.702;2023-01-08T04:42:56;28.90;;;15.00;;
70576;SDS011;58138;43.138;24.702;2023-01-08T04:45:22;26.33;;;15.27;;
70576;SDS011;58138;43.138;24.702;2023-01-08T04:47:47;17.33;;;10.05;;
70576;SDS011;58138;43.138;24.702;2023-01-08T04:50:13;21.67;;;13.32;;
70576;SDS011;58138;43.138;24.702;2023-01-08T04:52:38;25.85;;;13.48;;
70576;SDS011;58138;43.138;24.702;2023-01-08T04:55:04;23.10;;;12.63;;
70576;SDS011;58138;43.138;24.702;2023-01-08T04:57:29;26.80;;;15.05;;
70576;SDS011;58138;43.138;24.702;2023-01-08T04:59:55;24.83;;;14.88;;
70576;SDS011;58138;43.138;24.702;2023-01-08T05:02:20;17.58;;;10.25;;
70576;SDS011;58138;43.138;24.702;2023-01-08T05:04:46;34.17;;;18.63;;
70576;SDS011;58138;43.138;24.702;2023-01-08T05:07:12;39.25;;;23.08;;
70576;SDS011;58138;43.138;24.702;2023-01-08T05:09:37;38.47;;;23.25;;
70576;SDS011;58138;43.138;24.702;2023-01-08T05:12:02;41.80;;;24.13;;
70576;SDS011;58138;43.138;24.702;2023-01-08T05:14:28;35.58;;;18.90;;
70576;SDS011;58138;43.138;24.702;2023-01-08T05:16:54;30.00;;;18.15;;
70576;SDS011;58138;43.138;24.702;2023-01-08T05:19:19;29.33;;;17.45;;
70576;SDS011;58138;43.138;24.702;2023-01-08T05:21:44;32.15;;;17.90;;
70576;SDS011;58138;43.138;24.702;2023-01-08T05:24:10;30.77;;;17.95;;
70576;SDS011;58138;43.138;24.702;2023-01-08T05:26:36;32.42;;;18.80;;
70576;SDS011;58138;43.138;24.702;2023-01-08T05:29:01;28.45;;;15.50;;
70576;SDS011;58138;43.138;24.702;2023-01-08T05:31:27;25.92;;;15.40;;
70576;SDS011;58138;43.138;24.702;2023-01-08T05:33:53;29.23;;;16.70;;
70576;SDS011;58138;43.138;24.702;2023-01-08T05:36:18;29.50;;;17.27;;
70576;SDS011;58138;43.138;24.702;2023-01-08T05:38:44;32.55;;;17.25;;
70576;SDS011;58138;43.138;24.702;2023-01-08T05:41:09;23.88;;;14.93;;
70576;SDS011;58138;43.138;24.702;2023-01-08T05:43:35;27.65;;;14.65;;
70576;SDS011;58138;43.138;24.702;2023-01-08T05:46:01;22.27;;;13.38;;
70576;SDS011;58138;43.138;24.702;2023-01-08T05:48:27;22.02;;;12.43;;
70576;SDS011;58138;43.138;24.702;2023-01-08T05:50:54;26.38;;;13.55;;
70576;SDS011;58138;43.138;24.702;2023-01-08T05:53:19;22.67;;;13.68;;
70576;SDS011;58138;43.138;24.702;2023-01-08T05:55:45;35.35;;;21.83;;
70576;SDS011;58138;43.138;24.702;2023-01-08T05:58:10;36.60;;;22.38;;
70576;SDS011;58138;43.138;24.702;2023-01-08T06:00:36;38.22;;;23.02;;
70576;SDS011;58138;43.138;24.702;2023-01-08T06:03:02;37.60;;;22.33;;
70576;SDS011;58138;43.138;24.702;2023-01-08T06:05:29;35.42;;;21.48;;
70576;SDS011;58138;43.138;24.702;2023-01-08T06:07:55;32.72;;;20.17;;
70576;SDS011;58138;43.138;24.702;2023-01-08T06:10:21;47.70;;;24.23;;
70576;SDS011;58138;43.138;24.702;2023-01-08T06:12:47;34.45;;;20.65;;
70576;SDS011;58138;43.138;24.702;2023-01-08T06:15:13;34.80;;;20.15;;
70576;SDS011;58138;43.138;24.702;2023-01-08T06:17:38;27.98;;;18.23;;
70576;SDS011;58138;43.138;24.702;2023-01-08T06:20:04;33.33;;;19.40;;
70576;SDS011;58138;43.138;24.702;2023-01-08T06:22:30;33.63;;;19.73;;
70576;SDS011;58138;43.138;24.702;2023-01-08T06:24:55;49.55;;;25.50;;
70576;SDS011;58138;43.138;24.702;2023-01-08T06:27:21;43.42;;;25.17;;
70576;SDS011;58138;43.138;24.702;2023-01-08T06:29:46;39.17;;;21.27;;
70576;SDS011;58138;43.138;24.702;2023-01-08T06:32:12;35.63;;;20.20;;
70576;SDS011;58138;43.138;24.702;2023-01-08T06:34:37;32.22;;;17.88;;
70576;SDS011;58138;43.138;24.702;2023-01-08T06:37:02;29.48;;;18.48;;
70576;SDS011;58138;43.138;24.702;2023-01-08T06:39:28;29.13;;;19.05;;
70576;SDS011;58138;43.138;24.702;2023-01-08T06:41:54;30.15;;;17.65;;
70576;SDS011;58138;43.138;24.702;2023-01-08T06:44:19;27.95;;;17.98;;
70576;SDS011;58138;43.138;24.702;2023-01-08T06:46:45;34.15;;;21.60;;
70576;SDS011;58138;43.138;24.702;2023-01-08T06:49:11;34.13;;;21.65;;
70576;SDS011;58138;43.138;24.702;2023-01-08T06:51:37;34.55;;;20.92;;
70576;SDS011;58138;43.138;24.702;2023-01-08T06:54:03;33.28;;;20.83;;
70576;SDS011;58138;43.138;24.702;2023-01-08T06:56:28;30.50;;;20.17;;
70576;SDS011;58138;43.138;24.702;2023-01-08T06:58:54;33.92;;;20.38;;
70576;SDS011;58138;43.138;24.702;2023-01-08T07:01:19;25.70;;;16.15;;
70576;SDS011;58138;43.138;24.702;2023-01-08T07:03:47;32.38;;;19.60;;
70576;SDS011;58138;43.138;24.702;2023-01-08T07:06:16;22.00;;;11.60;;
70576;SDS011;58138;43.138;24.702;2023-01-08T07:08:43;30.15;;;17.50;;
70576;SDS011;58138;43.138;24.702;2023-01-08T07:11:08;19.83;;;12.20;;
70576;SDS011;58138;43.138;24.702;2023-01-08T07:13:34;23.13;;;13.75;;
70576;SDS011;58138;43.138;24.702;2023-01-08T07:16:06;23.17;;;13.80;;
70576;SDS011;58138;43.138;24.702;2023-01-08T07:18:32;24.67;;;13.57;;
70576;SDS011;58138;43.138;24.702;2023-01-08T07:20:58;33.00;;;18.85;;
70576;SDS011;58138;43.138;24.702;2023-01-08T07:23:23;30.95;;;19.55;;
70576;SDS011;58138;43.138;24.702;2023-01-08T07:25:49;37.00;;;20.77;;
70576;SDS011;58138;43.138;24.702;2023-01-08T07:28:14;36.92;;;22.33;;
70576;SDS011;58138;43.138;24.702;2023-01-08T07:30:40;43.13;;;26.42;;
70576;SDS011;58138;43.138;24.702;2023-01-08T07:33:05;43.63;;;24.92;;
70576;SDS011;58138;43.138;24.702;2023-01-08T07:35:31;39.42;;;20.40;;
70576;SDS011;58138;43.138;24.702;2023-01-08T07:37:56;28.00;;;16.25;;
70576;SDS011;58138;43.138;24.702;2023-01-08T07:40:22;30.73;;;20.65;;
70576;SDS011;58138;43.138;24.702;2023-01-08T07:42:48;30.77;;;19.23;;
70576;SDS011;58138;43.138;24.702;2023-01-08T07:45:20;29.13;;;17.98;;
70576;SDS011;58138;43.138;24.702;2023-01-08T07:47:46;25.13;;;17.85;;
70576;SDS011;58138;43.138;24.702;2023-01-08T07:50:11;33.80;;;23.98;;
70576;SDS011;58138;43.138;24.702;2023-01-08T07:52:37;44.40;;;31.40;;
70576;SDS011;58138;43.138;24.702;2023-01-08T07:55:02;38.22;;;26.08;;
70576;SDS011;58138;43.138;24.702;2023-01-08T07:57:28;39.85;;;27.55;;
70576;SDS011;58138;43.138;24.702;2023-01-08T07:59:54;39.13;;;25.90;;
70576;SDS011;58138;43.138;24.702;2023-01-08T08:02:19;64.68;;;37.30;;
70576;SDS011;58138;43.138;24.702;2023-01-08T08:04:44;55.92;;;34.08;;
70576;SDS011;58138;43.138;24.702;2023-01-08T08:07:10;41.45;;;23.80;;
70576;SDS011;58138;43.138;24.702;2023-01-08T08:09:35;35.90;;;23.13;;
70576;SDS011;58138;43.138;24.702;2023-01-08T08:12:01;35.05;;;21.88;;
70576;SDS011;58138;43.138;24.702;2023-01-08T08:14:26;32.92;;;21.65;;
70576;SDS011;58138;43.138;24.702;2023-01-08T08:16:52;25.73;;;18.35;;
70576;SDS011;58138;43.138;24.702;2023-01-08T08:19:17;29.88;;;18.65;;
70576;SDS011;58138;43.138;24.702;2023-01-08T08:21:43;28.20;;;16.67;;
70576;SDS011;58138;43.138;24.702;2023-01-08T08:24:08;21.33;;;16.15;;
70576;SDS011;58138;43.138;24.702;2023-01-08T08:26:33;30.50;;;21.95;;
70576;SDS011;58138;43.138;24.702;2023-01-08T08:28:59;32.60;;;19.17;;
70576;SDS011;58138;43.138;24.702;2023-01-08T08:31:25;26.30;;;19.17;;
70576;SDS011;58138;43.138;24.702;2023-01-08T08:33:50;27.48;;;19.20;;
70576;SDS011;58138;43.138;24.702;2023-01-08T08:36:16;27.65;;;18.30;;
70576;SDS011;58138;43.138;24.702;2023-01-08T08:38:41;25.00;;;17.10;;
70576;SDS011;58138;43.138;24.702;2023-01-08T08:41:06;25.48;;;16.00;;
70576;SDS011;58138;43.138;24.702;2023-01-08T08:43:32;14.20;;;9.50;;
70576;SDS011;58138;43.138;24.702;2023-01-08T08:45:57;15.52;;;9.52;;
70576;SDS011;58138;43.138;24.702;2023-01-08T08:48:23;18.05;;;9.85;;
70576;SDS011;58138;43.138;24.702;2023-01-08T08:50:48;16.42;;;10.23;;
70576;SDS011;58138;43.138;24.702;2023-01-08T08:53:14;14.27;;;9.75;;
70576;SDS011;58138;43.138;24.702;2023-01-08T08:55:39;15.10;;;10.00;;
70576;SDS011;58138;43.138;24.702;2023-01-08T08:58:06;21.67;;;12.82;;
70576;SDS011;58138;43.138;24.702;2023-01-08T09:00:34;16.70;;;11.60;;
70576;SDS011;58138;43.138;24.702;2023-01-08T09:03:00;16.15;;;12.00;;
70576;SDS011;58138;43.138;24.702;2023-01-08T09:05:25;12.23;;;10.30;;
70576;SDS011;58138;43.138;24.702;2023-01-08T09:07:51;12.10;;;8.35;;
70576;SDS011;58138;43.138;24.702;2023-01-08T09:10:18;12.07;;;9.02;;
70576;SDS011;58138;43.138;24.702;2023-01-08T09:12:44;13.77;;;10.48;;
70576;SDS011;58138;43.138;24.702;2023-01-08T09:15:09;15.85;;;10.52;;
70576;SDS011;58138;43.138;24.702;2023-01-08T09:17:35;16.90;;;12.88;;
70576;SDS011;58138;43.138;24.702;2023-01-08T09:20:01;18.20;;;11.60;;
70576;SDS011;58138;43.138;24.702;2023-01-08T09:22:27;15.48;;;11.77;;
70576;SDS011;58138;43.138;24.702;2023-01-08T09:24:52;21.25;;;14.70;;
70576;SDS011;58138;43.138;24.702;2023-01-08T09:27:19;21.48;;;14.60;;
70576;SDS011;58138;43.138;24.702;2023-01-08T09:29:44;20.08;;;14.02;;
70576;SDS011;58138;43.138;24.702;2023-01-08T09:32:10;26.33;;;14.45;;
70576;SDS011;58138;43.138;24.702;2023-01-08T09:34:35;25.98;;;16.70;;
70576;SDS011;58138;43.138;24.702;2023-01-08T09:37:02;42.78;;;27.15;;
70576;SDS011;58138;43.138;24.702;2023-01-08T09:39:28;25.48;;;18.23;;
70576;SDS011;58138;43.138;24.702;2023-01-08T09:41:54;16.98;;;11.70;;
70576;SDS011;58138;43.138;24.702;2023-01-08T09:44:23;16.65;;;11.65;;
70576;SDS011;58138;43.138;24.702;2023-01-08T09:46:52;16.05;;;11.52;;
70576;SDS011;58138;43.138;24.702;2023-01-08T09:49:20;16.08;;;10.50;;
70576;SDS011;58138;43.138;24.702;2023-01-08T09:51:48;17.58;;;10.32;;
70576;SDS011;58138;43.138;24.702;2023-01-08T09:54:15;18.98;;;11.32;;
70576;SDS011;58138;43.138;24.702;2023-01-08T09:56:41;15.45;;;11.57;;
70576;SDS011;58138;43.138;24.702;2023-01-08T09:59:09;18.65;;;12.00;;
70576;SDS011;58138;43.138;24.702;2023-01-08T10:01:37;19.52;;;12.55;;
70576;SDS011;58138;43.138;24.702;2023-01-08T10:04:18;19.40;;;13.02;;
70576;SDS011;58138;43.138;24.702;2023-01-08T10:06:48;20.92;;;10.90;;
70576;SDS011;58138;43.138;24.702;2023-01-08T10:09:30;19.70;;;11.25;;
70576;SDS011;58138;43.138;24.702;2023-01-08T10:11:58;18.90;;;12.45;;
70576;SDS011;58138;43.138;24.702;2023-01-08T10:14:25;17.08;;;9.88;;
70576;SDS011;58138;43.138;24.702;2023-01-08T10:17:01;13.77;;;10.05;;
70576;SDS011;58138;43.138;24.702;2023-01-08T10:19:29;13.30;;;8.60;;
70576;SDS011;58138;43.138;24.702;2023-01-08T10:21:55;14.32;;;7.95;;
70576;SDS011;58138;43.138;24.702;2023-01-08T10:24:35;13.30;;;7.60;;
70576;SDS011;58138;43.138;24.702;2023-01-08T10:27:20;12.13;;;6.40;;
70576;SDS011;58138;43.138;24.702;2023-01-08T10:29:48;11.10;;;6.50;;
70576;SDS011;58138;43.138;24.702;2023-01-08T10:32:27;11.45;;;7.43;;
70576;SDS011;58138;43.138;24.702;2023-01-08T10:34:56;8.77;;;6.60;;
70576;SDS011;58138;43.138;24.702;2023-01-08T10:39:50;12.80;;;6.45;;
70576;SDS011;58138;43.138;24.702;2023-01-08T10:42:17;11.27;;;6.00;;
70576;SDS011;58138;43.138;24.702;2023-01-08T10:44:59;8.65;;;5.30;;
70576;SDS011;58138;43.138;24.702;2023-01-08T10:47:28;8.10;;;6.13;;
70576;SDS011;58138;43.138;24.702;2023-01-08T10:49:55;10.18;;;5.20;;
70576;SDS011;58138;43.138;24.702;2023-01-08T10:52:27;8.00;;;5.35;;
70576;SDS011;58138;43.138;24.702;2023-01-08T10:54:56;8.88;;;5.57;;
70576;SDS011;58138;43.138;24.702;2023-01-08T10:57:26;11.13;;;7.45;;
70576;SDS011;58138;43.138;24.702;2023-01-08T10:59:53;13.55;;;6.97;;
70576;SDS011;58138;43.138;24.702;2023-01-08T11:05:00;22.38;;;15.38;;
70576;SDS011;58138;43.138;24.702;2023-01-08T11:07:28;14.02;;;7.10;;
70576;SDS011;58138;43.138;24.702;2023-01-08T11:09:54;9.00;;;7.10;;
70576;SDS011;58138;43.138;24.702;2023-01-08T11:12:36;15.30;;;7.20;;
70576;SDS011;58138;43.138;24.702;2023-01-08T11:15:27;15.82;;;9.43;;
70576;SDS011;58138;43.138;24.702;2023-01-08T11:20:43;11.02;;;7.20;;
70576;SDS011;58138;43.138;24.702;2023-01-08T11:25:43;11.82;;;8.13;;
70576;SDS011;58138;43.138;24.702;2023-01-08T11:28:25;14.57;;;5.80;;
70576;SDS011;58138;43.138;24.702;2023-01-08T11:30:54;13.10;;;8.48;;
70576;SDS011;58138;43.138;24.702;2023-01-08T11:33:25;8.30;;;6.22;;
70576;SDS011;58138;43.138;24.702;2023-01-08T11:36:07;8.70;;;5.10;;
70576;SDS011;58138;43.138;24.702;2023-01-08T11:38:36;6.13;;;4.88;;
70576;SDS011;58138;43.138;24.702;2023-01-08T11:49:31;9.30;;;6.50;;
70576;SDS011;58138;43.138;24.702;2023-01-08T12:05:21;10.40;;;7.93;;
70576;SDS011;58138;43.138;24.702;2023-01-08T12:08:08;13.23;;;9.00;;
70576;SDS011;58138;43.138;24.702;2023-01-08T12:10:47;13.63;;;8.02;;
70576;SDS011;58138;43.138;24.702;2023-01-08T12:13:23;14.93;;;9.40;;
70576;SDS011;58138;43.138;24.702;2023-01-08T12:27:44;13.07;;;9.95;;
70576;SDS011;58138;43.138;24.702;2023-01-08T12:32:45;16.95;;;10.48;;
70576;SDS011;58138;43.138;24.702;2023-01-08T12:35:14;14.93;;;9.85;;
70576;SDS011;58138;43.138;24.702;2023-01-08T12:37:44;13.27;;;9.77;;
70576;SDS011;58138;43.138;24.702;2023-01-08T12:40:26;16.00;;;10.75;;
70576;SDS011;58138;43.138;24.702;2023-01-08T12:42:58;14.70;;;10.48;;
70576;SDS011;58138;43.138;24.702;2023-01-08T12:45:29;17.85;;;10.68;;
70576;SDS011;58138;43.138;24.702;2023-01-08T12:48:05;14.93;;;11.02;;
70576;SDS011;58138;43.138;24.702;2023-01-08T12:51:16;13.80;;;10.23;;
70576;SDS011;58138;43.138;24.702;2023-01-08T12:56:03;14.80;;;10.07;;
70576;SDS011;58138;43.138;24.702;2023-01-08T12:58:37;15.32;;;9.82;;
70576;SDS011;58138;43.138;24.702;2023-01-08T13:03:58;17.10;;;10.43;;
70576;SDS011;58138;43.138;24.702;2023-01-08T13:06:24;16.25;;;10.75;;
70576;SDS011;58138;43.138;24.702;2023-01-08T13:08:50;16.38;;;10.73;;
70576;SDS011;58138;43.138;24.702;2023-01-08T13:11:25;14.57;;;10.27;;
70576;SDS011;58138;43.138;24.702;2023-01-08T13:16:27;13.52;;;9.43;;
70576;SDS011;58138;43.138;24.702;2023-01-08T13:18:57;13.27;;;9.77;;
70576;SDS011;58138;43.138;24.702;2023-01-08T13:21:31;16.88;;;11.57;;
70576;SDS011;58138;43.138;24.702;2023-01-08T13:24:01;22.17;;;9.93;;
70576;SDS011;58138;43.138;24.702;2023-01-08T13:26:31;15.07;;;9.23;;
70576;SDS011;58138;43.138;24.702;2023-01-08T13:29:06;17.67;;;10.55;;
70576;SDS011;58138;43.138;24.702;2023-01-08T13:31:52;26.98;;;18.73;;
70576;SDS011;58138;43.138;24.702;2023-01-08T13:34:39;19.08;;;12.43;;
70576;SDS011;58138;43.138;24.702;2023-01-08T13:37:06;20.58;;;14.02;;
70576;SDS011;58138;43.138;24.702;2023-01-08T13:39:35;25.63;;;16.33;;
70576;SDS011;58138;43.138;24.702;2023-01-08T13:42:03;17.77;;;10.82;;
70576;SDS011;58138;43.138;24.702;2023-01-08T13:44:41;19.33;;;11.05;;
70576;SDS011;58138;43.138;24.702;2023-01-08T13:47:21;33.08;;;19.80;;
70576;SDS011;58138;43.138;24.702;2023-01-08T13:49:57;32.20;;;18.58;;
70576;SDS011;58138;43.138;24.702;2023-01-08T13:52:35;22.45;;;13.77;;
70576;SDS011;58138;43.138;24.702;2023-01-08T13:55:04;18.73;;;12.68;;
70576;SDS011;58138;43.138;24.702;2023-01-08T13:57:39;17.15;;;12.80;;
70576;SDS011;58138;43.138;24.702;2023-01-08T14:02:43;18.90;;;11.57;;
70576;SDS011;58138;43.138;24.702;2023-01-08T14:05:27;16.00;;;9.30;;
70576;SDS011;58138;43.138;24.702;2023-01-08T14:07:54;14.00;;;8.63;;
70576;SDS011;58138;43.138;24.702;2023-01-08T14:10:21;16.80;;;10.13;;
70576;SDS011;58138;43.138;24.702;2023-01-08T14:12:47;17.00;;;10.32;;
70576;SDS011;58138;43.138;24.702;2023-01-08T14:15:21;17.92;;;10.15;;
70576;SDS011;58138;43.138;24.702;2023-01-08T14:17:48;36.78;;;23.00;;
70576;SDS011;58138;43.138;24.702;2023-01-08T14:20:18;40.03;;;25.52;;
70576;SDS011;58138;43.138;24.702;2023-01-08T14:22:48;28.80;;;17.65;;
70576;SDS011;58138;43.138;24.702;2023-01-08T14:25:14;28.50;;;13.85;;
70576;SDS011;58138;43.138;24.702;2023-01-08T14:27:41;23.77;;;15.05;;
70576;SDS011;58138;43.138;24.702;2023-01-08T14:30:16;25.35;;;15.57;;
70576;SDS011;58138;43.138;24.702;2023-01-08T14:32:42;32.90;;;21.42;;
70576;SDS011;58138;43.138;24.702;2023-01-08T14:35:13;32.15;;;19.50;;
70576;SDS011;58138;43.138;24.702;2023-01-08T14:37:39;30.85;;;21.88;;
70576;SDS011;58138;43.138;24.702;2023-01-08T14:40:11;28.10;;;19.33;;
70576;SDS011;58138;43.138;24.702;2023-01-08T14:42:38;26.85;;;18.25;;
70576;SDS011;58138;43.138;24.702;2023-01-08T14:45:09;24.50;;;16.23;;
70576;SDS011;58138;43.138;24.702;2023-01-08T14:47:44;22.98;;;15.35;;
70576;SDS011;58138;43.138;24.702;2023-01-08T14:50:21;27.17;;;16.00;;
70576;SDS011;58138;43.138;24.702;2023-01-08T14:52:48;24.15;;;15.55;;
70576;SDS011;58138;43.138;24.702;2023-01-08T14:55:15;39.65;;;23.15;;
70576;SDS011;58138;43.138;24.702;2023-01-08T14:57:43;39.92;;;21.58;;
70576;SDS011;58138;43.138;24.702;2023-01-08T15:00:14;36.67;;;22.05;;
70576;SDS011;58138;43.138;24.702;2023-01-08T15:02:44;39.67;;;22.88;;
70576;SDS011;58138;43.138;24.702;2023-01-08T15:05:14;36.38;;;21.98;;
70576;SDS011;58138;43.138;24.702;2023-01-08T15:07:54;34.40;;;20.25;;
70576;SDS011;58138;43.138;24.702;2023-01-08T15:10:39;52.95;;;27.48;;
70576;SDS011;58138;43.138;24.702;2023-01-08T15:13:05;51.53;;;28.15;;
70576;SDS011;58138;43.138;24.702;2023-01-08T15:15:50;64.78;;;32.10;;
70576;SDS011;58138;43.138;24.702;2023-01-08T15:18:20;75.53;;;35.38;;
70576;SDS011;58138;43.138;24.702;2023-01-08T15:20:46;52.80;;;29.55;;
70576;SDS011;58138;43.138;24.702;2023-01-08T15:23:19;61.75;;;34.50;;
70576;SDS011;58138;43.138;24.702;2023-01-08T15:25:49;62.78;;;34.05;;
70576;SDS011;58138;43.138;24.702;2023-01-08T15:28:15;63.58;;;33.95;;